Time;durP1;ratioP1;P1;durP2;ratioP2;P2;SDS_P1;SDS_P2;PMS_P1;PMS_P2;Temp;Humidity;BMP_temperature;BMP_pressure;BME280_temperature;BME280_humidity;BME280_pressure;Samples;Min_cycle;Max_cycle;Signal;HPM_P1;HPM_P2
2023/04/21 00:00:13;;;;;;;3.00;2.80;;;;;;;8.52;89.57;95067.91;4360392;32;20173;-57
2023/04/21 00:02:38;;;;;;;2.77;2.67;;;;;;;8.61;89.67;95058.25;4344240;32;20207;-58
2023/04/21 00:05:08;;;;;;;3.67;3.47;;;;;;;8.52;89.70;95058.09;4353129;32;20196;-57
2023/04/21 00:07:34;;;;;;;2.93;2.77;;;;;;;8.63;89.57;95050.03;4360929;32;20181;-58
2023/04/21 00:09:59;;;;;;;4.10;3.90;;;;;;;8.56;89.68;95045.88;4346335;32;20239;-58
2023/04/21 00:12:24;;;;;;;3.63;3.43;;;;;;;8.60;89.40;95048.72;4353218;32;20174;-58
2023/04/21 00:14:50;;;;;;;4.07;3.73;;;;;;;8.45;89.80;95033.09;4352610;32;20181;-58
2023/04/21 00:17:15;;;;;;;4.17;3.87;;;;;;;8.48;89.51;95040.47;4361585;32;20184;-58
2023/04/21 00:19:41;;;;;;;3.07;2.87;;;;;;;8.56;89.54;95037.94;4354523;32;20185;-58
2023/04/21 00:22:10;;;;;;;3.13;3.03;;;;;;;8.70;88.82;95032.72;4359068;32;20269;-58
2023/04/21 00:24:36;;;;;;;4.07;3.77;;;;;;;8.54;89.42;95032.16;4344437;32;20181;-57
2023/04/21 00:27:02;;;;;;;3.40;3.23;;;;;;;8.32;89.89;95029.31;4350888;32;20280;-58
2023/04/21 00:29:28;;;;;;;3.97;3.23;;;;;;;8.40;90.13;95035.81;4348109;32;20185;-59
2023/04/21 00:31:53;;;;;;;3.83;3.63;;;;;;;8.47;90.13;95044.19;4358183;32;20192;-58
2023/04/21 00:34:19;;;;;;;5.07;4.63;;;;;;;8.73;89.08;95040.06;4358424;32;20227;-58
2023/04/21 00:36:44;;;;;;;5.17;4.67;;;;;;;8.67;89.07;95041.22;4349165;32;20280;-57
2023/04/21 00:39:09;;;;;;;4.10;3.73;;;;;;;8.65;89.45;95038.09;4350752;32;20174;-57
2023/04/21 00:41:36;;;;;;;4.27;4.07;;;;;;;8.61;89.25;95023.87;4336389;32;20233;-58
2023/04/21 00:44:05;;;;;;;4.23;3.93;;;;;;;8.58;89.76;95030.50;4352500;32;20178;-58
2023/04/21 00:46:31;;;;;;;3.60;3.40;;;;;;;8.51;89.70;95024.81;4347724;32;20246;-57
2023/04/21 00:48:57;;;;;;;4.57;4.17;;;;;;;8.64;89.22;95028.59;4345275;32;20244;-57
2023/04/21 00:51:23;;;;;;;3.90;3.70;;;;;;;8.56;89.56;95023.94;4353409;32;20204;-57
2023/04/21 00:53:50;;;;;;;4.30;4.00;;;;;;;8.50;90.12;95027.75;4348309;32;20178;-57
2023/04/21 00:56:17;;;;;;;3.57;3.37;;;;;;;8.42;90.63;95015.16;4336593;32;20277;-57
2023/04/21 00:58:44;;;;;;;4.73;4.23;;;;;;;8.49;90.42;95021.69;4341815;32;20185;-58
2023/04/21 01:01:09;;;;;;;3.80;3.50;;;;;;;8.49;90.14;95029.59;4338675;32;20212;-57
2023/04/21 01:03:35;;;;;;;4.73;4.50;;;;;;;8.31;90.83;95019.81;4350005;32;20181;-57
2023/04/21 01:06:00;;;;;;;3.83;3.63;;;;;;;8.32;90.99;95012.62;4332563;32;20189;-57
2023/04/21 01:08:26;;;;;;;4.10;3.90;;;;;;;8.37;90.92;95007.31;4353667;32;20192;-57
2023/04/21 01:10:52;;;;;;;4.00;3.73;;;;;;;8.69;89.39;95003.94;4346577;32;20208;-57
2023/04/21 01:13:23;;;;;;;4.60;4.33;;;;;;;8.64;88.98;95012.72;4343167;32;20264;-57
2023/04/21 01:15:48;;;;;;;4.67;4.37;;;;;;;8.75;89.28;94997.47;4348478;32;20256;-58
2023/04/21 01:18:14;;;;;;;5.20;4.77;;;;;;;8.65;89.36;94995.78;4343709;32;20204;-57
2023/04/21 01:20:39;;;;;;;4.43;4.03;;;;;;;8.65;89.08;95009.00;4349389;32;20201;-57
2023/04/21 01:23:06;;;;;;;8.57;5.57;;;;;;;8.73;89.05;95004.94;4334169;32;20196;-58
2023/04/21 01:25:31;;;;;;;5.47;5.00;;;;;;;8.65;89.19;95003.72;4343076;32;20192;-57
2023/04/21 01:27:57;;;;;;;3.50;3.30;;;;;;;8.79;88.90;95006.41;4353530;32;20360;-57
2023/04/21 01:30:22;;;;;;;10.37;5.20;;;;;;;8.69;89.47;95011.88;4347792;32;20173;-57
2023/04/21 01:32:48;;;;;;;3.43;3.33;;;;;;;8.63;89.52;95003.22;4335082;33;20212;-57
2023/04/21 01:35:13;;;;;;;6.23;5.33;;;;;;;8.56;89.67;95005.44;4345327;32;20258;-57
2023/04/21 01:37:38;;;;;;;4.47;4.07;;;;;;;8.59;89.90;95007.50;4350949;32;20193;-57
2023/04/21 01:40:06;;;;;;;4.27;3.97;;;;;;;8.59;89.76;95004.84;4336492;33;20212;-58
2023/04/21 01:42:33;;;;;;;4.60;3.80;;;;;;;8.62;89.83;95014.88;4333412;33;20181;-58
2023/04/21 01:44:59;;;;;;;3.67;3.47;;;;;;;8.67;89.16;95017.44;4342155;32;20185;-57
2023/04/21 01:47:25;;;;;;;4.77;4.37;;;;;;;8.80;88.82;95019.34;4335956;33;20245;-57
2023/04/21 01:49:52;;;;;;;4.53;4.23;;;;;;;8.98;87.88;95014.28;4344002;32;20197;-57
2023/04/21 01:52:18;;;;;;;4.93;4.63;;;;;;;8.83;88.10;95020.62;4346974;32;20347;-57
2023/04/21 01:54:43;;;;;;;3.50;3.30;;;;;;;8.87;88.48;95022.41;4349844;32;20185;-58
2023/04/21 02:00:31;;;;;;;3.20;3.10;;;;;;;8.94;87.81;95003.50;4343442;32;20208;-58
2023/04/21 02:02:57;;;;;;;4.20;3.93;;;;;;;8.81;88.27;95012.97;4350210;32;20222;-58
2023/04/21 02:05:22;;;;;;;4.57;4.27;;;;;;;8.96;87.42;95014.56;4346102;32;20185;-58
2023/04/21 02:07:47;;;;;;;4.67;4.37;;;;;;;8.81;87.88;95012.97;4332864;32;20280;-57
2023/04/21 02:10:13;;;;;;;4.50;4.20;;;;;;;8.98;87.77;95011.63;4356705;32;20201;-57
2023/04/21 02:12:38;;;;;;;6.10;5.70;;;;;;;8.96;87.55;95010.06;4348773;32;20189;-57
2023/04/21 02:15:05;;;;;;;4.20;3.93;;;;;;;8.77;88.94;95013.81;4336959;32;20178;-57
2023/04/21 02:17:30;;;;;;;3.70;3.50;;;;;;;8.90;88.42;95013.91;4339764;32;20197;-58
2023/04/21 02:19:56;;;;;;;4.13;3.83;;;;;;;9.03;87.92;95011.56;4346532;32;20224;-57
2023/04/21 02:22:22;;;;;;;4.90;4.60;;;;;;;8.97;87.91;95013.50;4334189;32;20199;-57
2023/04/21 02:24:48;;;;;;;5.97;5.47;;;;;;;8.88;87.97;95012.59;4331769;32;20298;-57
2023/04/21 02:27:13;;;;;;;4.07;3.70;;;;;;;8.86;88.49;95001.53;4348114;32;20204;-57
2023/04/21 02:29:38;;;;;;;5.60;5.13;;;;;;;8.69;89.32;95002.06;4340144;32;20241;-57
2023/04/21 02:32:04;;;;;;;4.60;4.20;;;;;;;8.93;88.38;94991.38;4347962;32;20189;-57
2023/04/21 02:34:29;;;;;;;4.40;4.10;;;;;;;9.02;88.08;94996.75;4347493;32;20208;-58
2023/04/21 02:36:54;;;;;;;4.77;4.50;;;;;;;8.81;88.39;94989.16;4354329;32;20215;-57
2023/04/21 02:39:20;;;;;;;4.13;3.80;;;;;;;8.70;88.72;94995.72;4358283;32;20181;-57
2023/04/21 02:41:45;;;;;;;4.17;3.87;;;;;;;8.69;89.07;94983.56;4341556;32;20189;-58
2023/04/21 02:44:10;;;;;;;3.57;3.27;;;;;;;8.75;89.10;94985.03;4336338;32;20209;-57
2023/04/21 02:46:39;;;;;;;3.33;3.17;;;;;;;8.72;89.07;94984.84;4351694;32;20225;-57
2023/04/21 02:49:05;;;;;;;3.90;3.70;;;;;;;8.86;88.80;94985.66;4356907;32;20235;-57
2023/04/21 02:51:31;;;;;;;3.43;3.23;;;;;;;8.61;89.50;94981.56;4340566;32;20181;-58
2023/04/21 02:53:56;;;;;;;4.23;3.83;;;;;;;8.53;89.83;94974.28;4346850;32;20185;-57
2023/04/21 02:56:22;;;;;;;4.07;3.77;;;;;;;8.78;88.51;94976.53;4347922;32;20181;-57
2023/04/21 02:58:47;;;;;;;4.13;3.83;;;;;;;8.79;88.25;94975.44;4357131;32;20294;-58
2023/04/21 03:01:12;;;;;;;3.77;3.57;;;;;;;8.73;88.83;94979.25;4359114;32;20200;-57
2023/04/21 03:03:38;;;;;;;3.57;3.37;;;;;;;8.76;89.45;94983.16;4356650;32;20250;-58
2023/04/21 03:06:04;;;;;;;4.43;4.13;;;;;;;8.57;90.06;94984.00;4361621;32;20222;-57
2023/04/21 03:08:30;;;;;;;3.50;3.30;;;;;;;8.65;90.10;94981.78;4356499;32;20182;-58
2023/04/21 03:10:55;;;;;;;4.57;4.27;;;;;;;8.74;89.92;94980.81;4364109;32;20240;-58
2023/04/21 03:13:24;;;;;;;3.77;3.53;;;;;;;8.68;89.99;94974.06;4357471;32;20195;-58
2023/04/21 03:15:50;;;;;;;4.10;3.90;;;;;;;8.69;90.01;94983.56;4344712;32;20182;-58
2023/04/21 03:18:16;;;;;;;4.73;3.37;;;;;;;8.63;90.23;94979.41;4348477;32;20205;-58
2023/04/21 03:20:41;;;;;;;4.37;4.07;;;;;;;8.77;89.83;94987.38;4350400;32;20168;-57
2023/04/21 03:23:07;;;;;;;4.53;4.30;;;;;;;8.68;90.15;94986.50;4362463;32;20216;-58
2023/04/21 03:25:32;;;;;;;3.27;3.07;;;;;;;8.49;90.79;94974.09;4340127;32;20204;-57
2023/04/21 03:27:57;;;;;;;4.10;3.90;;;;;;;8.42;91.20;94986.09;4356245;32;20178;-59
2023/04/21 03:30:25;;;;;;;3.73;3.50;;;;;;;8.25;91.61;94991.88;4356552;32;20200;-57
2023/04/21 03:32:50;;;;;;;4.17;3.87;;;;;;;8.43;91.21;94985.81;4341334;32;20268;-58
2023/04/21 03:35:16;;;;;;;2.93;2.80;;;;;;;8.50;90.83;94982.81;4355566;32;20176;-57
2023/04/21 03:37:41;;;;;;;3.20;2.90;;;;;;;8.63;90.39;94976.00;4359887;32;20217;-57
2023/04/21 03:40:07;;;;;;;3.07;2.93;;;;;;;8.59;90.45;94983.72;4358609;32;20246;-58
2023/04/21 03:42:34;;;;;;;3.40;3.20;;;;;;;8.55;90.30;94978.22;4342198;32;20269;-57
2023/04/21 03:45:07;;;;;;;3.03;2.93;;;;;;;8.43;90.88;94980.53;4352808;32;20181;-57
2023/04/21 03:47:33;;;;;;;2.90;2.70;;;;;;;8.38;91.22;94983.25;4347197;32;20189;-58
2023/04/21 03:49:59;;;;;;;3.33;2.87;;;;;;;8.66;90.34;94989.41;4359649;32;20195;-58
2023/04/21 03:52:24;;;;;;;3.27;3.07;;;;;;;8.46;91.10;94987.88;4355895;32;20233;-57
2023/04/21 03:54:50;;;;;;;3.10;2.93;;;;;;;8.40;91.29;94989.03;4339181;32;20189;-58
2023/04/21 03:57:15;;;;;;;1.93;1.83;;;;;;;8.54;90.94;94986.44;4346547;32;20197;-58
2023/04/21 03:59:41;;;;;;;2.40;2.17;;;;;;;8.54;90.95;94986.44;4344261;32;20254;-58
2023/04/21 04:02:07;;;;;;;2.37;2.27;;;;;;;8.65;90.11;94985.22;4347778;32;20243;-57
2023/04/21 04:04:32;;;;;;;1.67;1.57;;;;;;;8.69;89.87;94983.56;4355872;32;20256;-57
2023/04/21 04:06:57;;;;;;;3.03;2.83;;;;;;;8.47;91.09;94976.25;4358203;32;20228;-59
2023/04/21 04:09:23;;;;;;;2.10;2.00;;;;;;;8.44;91.21;94981.31;4360786;32;20180;-58
2023/04/21 04:11:48;;;;;;;1.90;1.90;;;;;;;8.60;90.58;94986.06;4357302;32;20204;-58
2023/04/21 04:14:14;;;;;;;2.80;2.70;;;;;;;8.41;91.10;94981.88;4354744;32;20200;-57
2023/04/21 04:16:40;;;;;;;2.67;2.57;;;;;;;8.52;90.77;94992.00;4356063;32;20203;-58
2023/04/21 04:19:06;;;;;;;2.60;2.50;;;;;;;8.46;90.27;94987.88;4359952;32;20185;-57
2023/04/21 04:21:32;;;;;;;3.43;3.33;;;;;;;8.46;90.46;95005.59;4360947;32;20220;-58
2023/04/21 04:23:57;;;;;;;2.40;2.30;;;;;;;8.51;90.22;95005.53;4345755;32;20185;-58
2023/04/21 04:26:24;;;;;;;2.43;2.33;;;;;;;8.38;90.31;94999.09;4348875;32;20192;-57
2023/04/21 04:28:51;;;;;;;2.27;2.17;;;;;;;8.56;89.82;95002.78;4356373;32;20181;-57
2023/04/21 04:31:16;;;;;;;2.27;2.17;;;;;;;8.34;90.62;94994.66;4356642;32;20224;-58
2023/04/21 04:33:42;;;;;;;2.40;2.30;;;;;;;8.47;90.11;94991.31;4337314;32;20281;-57
2023/04/21 04:36:09;;;;;;;3.03;2.47;;;;;;;8.52;89.59;94999.94;4339434;32;20220;-58
2023/04/21 04:38:36;;;;;;;2.27;2.17;;;;;;;8.50;89.79;94996.03;4339125;32;20231;-58
2023/04/21 04:41:02;;;;;;;1.90;1.80;;;;;;;8.57;89.24;95001.72;4343229;32;20185;-57
2023/04/21 04:43:28;;;;;;;2.13;2.03;;;;;;;8.55;89.37;95001.22;4340866;32;20278;-62
2023/04/21 04:45:53;;;;;;;2.50;2.33;;;;;;;8.60;89.32;95001.13;4357932;32;20192;-57
2023/04/21 04:48:19;;;;;;;3.10;3.00;;;;;;;8.48;89.88;94995.53;4353448;32;20257;-57
2023/04/21 04:50:44;;;;;;;2.57;2.47;;;;;;;8.42;90.38;94999.31;4355874;32;20177;-58
2023/04/21 04:53:10;;;;;;;2.33;2.23;;;;;;;8.34;90.60;95000.72;4359720;32;20256;-58
2023/04/21 04:55:35;;;;;;;2.50;2.40;;;;;;;8.18;91.68;95005.41;4359787;32;20193;-57
2023/04/21 04:58:01;;;;;;;2.97;2.77;;;;;;;8.18;91.71;95005.41;4339305;32;20260;-57
2023/04/21 05:00:27;;;;;;;3.83;3.53;;;;;;;8.50;90.58;95001.31;4358715;32;20188;-58
2023/04/21 05:02:53;;;;;;;3.07;2.87;;;;;;;8.41;90.56;95000.37;4345332;32;20239;-57
2023/04/21 05:05:20;;;;;;;4.37;4.10;;;;;;;8.37;90.88;95000.16;4346775;32;20219;-57
2023/04/21 05:07:46;;;;;;;3.30;3.10;;;;;;;8.24;91.40;95004.28;4347230;32;20289;-57
2023/04/21 05:10:11;;;;;;;3.10;2.80;;;;;;;8.31;91.36;95006.59;4359393;32;20172;-57
2023/04/21 05:12:36;;;;;;;2.77;2.67;;;;;;;8.39;91.47;95019.16;4357341;32;20197;-57
2023/04/21 05:15:02;;;;;;;2.27;2.17;;;;;;;8.40;91.09;95019.94;4351626;32;20197;-57
2023/04/21 05:17:29;;;;;;;2.80;2.67;;;;;;;8.53;90.81;95021.84;4352382;32;20188;-62
2023/04/21 05:19:55;;;;;;;3.30;3.10;;;;;;;8.66;89.50;95023.78;4351097;32;20186;-57
2023/04/21 05:22:20;;;;;;;2.07;1.97;;;;;;;8.41;90.62;95024.94;4356312;32;20308;-57
2023/04/21 05:24:46;;;;;;;3.20;3.00;;;;;;;8.28;91.32;95018.50;4350669;32;20185;-57
2023/04/21 05:27:11;;;;;;;2.67;2.50;;;;;;;8.31;91.29;95024.28;4357711;32;20199;-57
2023/04/21 05:29:37;;;;;;;2.87;2.67;;;;;;;8.53;90.81;95033.22;4355082;32;20185;-57
2023/04/21 05:32:02;;;;;;;2.50;2.40;;;;;;;8.73;89.49;95031.37;4352809;32;20181;-57
2023/04/21 05:34:27;;;;;;;5.73;3.60;;;;;;;8.81;88.73;95025.41;4356241;32;20196;-58
2023/04/21 05:36:53;;;;;;;3.87;3.67;;;;;;;8.58;89.05;95021.78;4348839;32;20204;-57
2023/04/21 05:39:18;;;;;;;3.60;3.40;;;;;;;8.70;89.31;95029.31;4360742;32;20215;-58
2023/04/21 05:41:43;;;;;;;8.57;4.30;;;;;;;8.73;88.79;95032.13;4358354;32;20237;-58
2023/04/21 05:44:09;;;;;;;3.90;3.60;;;;;;;8.63;89.37;95029.66;4337323;32;20193;-57
2023/04/21 05:46:34;;;;;;;3.70;3.50;;;;;;;8.67;89.36;95025.38;4358505;32;20231;-57
2023/04/21 05:49:06;;;;;;;3.03;2.87;;;;;;;8.57;89.44;95028.16;4352547;32;20215;-57
2023/04/21 05:51:34;;;;;;;2.47;2.37;;;;;;;8.67;88.96;95017.44;4292401;32;20256;-57
2023/04/21 05:53:59;;;;;;;3.37;3.13;;;;;;;8.61;89.12;95021.22;4313328;33;20236;-58
2023/04/21 05:56:25;;;;;;;2.87;2.67;;;;;;;8.68;88.86;95019.00;4348584;32;20190;-58
2023/04/21 05:58:51;;;;;;;5.27;4.60;;;;;;;8.73;88.70;95021.56;4289568;32;20280;-56
2023/04/21 06:01:17;;;;;;;3.23;3.10;;;;;;;8.81;88.32;95018.25;4322500;32;20196;-58
2023/04/21 06:03:44;;;;;;;2.57;2.47;;;;;;;8.79;87.97;95017.75;4319208;32;20181;-57
2023/04/21 06:06:14;;;;;;;3.63;3.43;;;;;;;8.94;86.99;95001.63;4316157;32;20224;-58
2023/04/21 06:08:43;;;;;;;4.57;4.17;;;;;;;8.99;86.60;95007.91;4331027;32;20292;-57
2023/04/21 06:11:08;;;;;;;4.30;4.00;;;;;;;9.15;86.10;95017.16;4342651;32;20236;-58
2023/04/21 06:13:34;;;;;;;2.73;2.63;;;;;;;9.18;86.19;95019.22;4356949;32;20195;-57
2023/04/21 06:16:03;;;;;;;23.20;2.40;;;;;;;9.28;85.00;95017.19;4339790;32;20181;-52
2023/04/21 06:18:33;;;;;;;10.27;1.93;;;;;;;10.38;98.62;95009.22;4335662;32;20294;-50
2023/04/21 06:20:58;;;;;;;10.13;2.10;;;;;;;11.77;100.00;95024.91;4331510;32;20243;-53
2023/04/21 06:23:25;;;;;;;1.90;1.80;;;;;;;13.10;98.15;95017.16;4328732;32;20190;-52
2023/04/21 06:26:19;;;;;;;3.77;2.70;;;;;;;13.74;92.90;95007.28;4332770;32;20225;-52
2023/04/21 06:28:47;;;;;;;2.33;2.10;;;;;;;14.22;85.85;95006.09;4344865;32;20202;-50
2023/04/21 06:31:14;;;;;;;2.03;1.93;;;;;;;14.82;82.14;94994.19;4331157;32;20181;-52
2023/04/21 06:33:40;;;;;;;2.37;1.97;;;;;;;15.19;76.84;94991.66;4338286;32;20241;-52
2023/04/21 06:36:07;;;;;;;3.57;3.37;;;;;;;15.20;72.28;94993.22;4345502;32;20185;-52
2023/04/21 06:38:34;;;;;;;3.50;3.30;;;;;;;15.06;68.64;94994.31;4318341;32;20193;-51
2023/04/21 06:41:00;;;;;;;3.50;3.40;;;;;;;15.09;67.66;94984.84;4346617;32;20203;-51
2023/04/21 06:43:25;;;;;;;2.83;2.63;;;;;;;15.09;65.45;94995.53;4317759;33;20265;-47
2023/04/21 06:45:51;;;;;;;7.50;3.90;;;;;;;15.09;66.15;94995.53;4306345;33;20209;-51
2023/04/21 06:48:16;;;;;;;3.93;3.63;;;;;;;14.96;65.14;94999.28;4345720;32;20193;-51
2023/04/21 06:50:45;;;;;;;2.20;2.10;;;;;;;15.11;66.01;94999.44;4287832;32;20224;-52
2023/04/21 06:53:11;;;;;;;2.57;2.47;;;;;;;15.22;67.05;94991.00;4300335;32;20194;-48
2023/04/21 06:55:37;;;;;;;3.20;2.90;;;;;;;15.36;67.85;94992.28;4328048;32;20280;-52
2023/04/21 06:58:04;;;;;;;3.00;2.70;;;;;;;15.40;65.17;94992.38;4290655;33;20185;-49
2023/04/21 07:00:30;;;;;;;3.47;3.17;;;;;;;15.28;70.81;94989.69;4322967;32;20189;-58
2023/04/21 07:02:57;;;;;;;4.57;4.27;;;;;;;14.17;64.26;94992.94;4334228;32;20195;-59
2023/04/21 07:05:23;;;;;;;4.13;3.83;;;;;;;13.55;66.50;94996.22;4273573;32;20178;-60
2023/04/21 07:07:52;;;;;;;3.53;3.33;;;;;;;12.73;70.16;94997.31;4298742;32;20195;-59
2023/04/21 07:10:20;;;;;;;3.17;2.97;;;;;;;12.56;70.57;94992.81;4331498;32;20283;-58
2023/04/21 07:12:47;;;;;;;2.93;2.83;;;;;;;12.48;72.11;94998.09;4282525;33;20216;-59
2023/04/21 07:15:14;;;;;;;3.40;3.17;;;;;;;11.93;73.59;94999.44;4324888;32;20189;-58
2023/04/21 07:17:40;;;;;;;5.50;3.37;;;;;;;11.84;74.35;94998.66;4315502;32;20197;-58
2023/04/21 07:20:07;;;;;;;3.33;2.63;;;;;;;12.02;74.80;94992.28;4337384;32;20204;-59
2023/04/21 07:22:35;;;;;;;3.27;3.07;;;;;;;11.85;74.96;94988.78;4318990;32;20268;-58
2023/04/21 07:25:07;;;;;;;2.93;2.77;;;;;;;11.89;74.31;94989.75;4299975;33;20190;-58
2023/04/21 07:27:35;;;;;;;2.73;2.63;;;;;;;11.86;74.98;94985.03;4328021;32;20215;-59
2023/04/21 07:30:02;;;;;;;4.23;3.37;;;;;;;11.94;75.11;94981.62;4314683;32;20177;-58
2023/04/21 07:32:28;;;;;;;4.27;2.73;;;;;;;11.87;75.18;94986.59;4347010;32;20189;-57
2023/04/21 07:34:53;;;;;;;11.63;3.00;;;;;;;12.00;74.52;94991.03;4316261;32;20240;-57
2023/04/21 07:37:21;;;;;;;3.50;3.30;;;;;;;12.26;74.11;94989.16;4279874;32;20212;-58
2023/04/21 07:39:47;;;;;;;3.17;2.97;;;;;;;11.92;73.48;94981.94;4302262;32;20311;-58
2023/04/21 07:42:14;;;;;;;2.50;2.40;;;;;;;11.89;74.36;94987.09;4310200;32;20190;-58
2023/04/21 07:44:41;;;;;;;2.77;2.67;;;;;;;11.68;75.07;94990.28;4314151;33;20239;-59
2023/04/21 07:47:07;;;;;;;4.20;3.83;;;;;;;11.85;74.84;94988.78;4292019;32;20190;-59
2023/04/21 07:49:35;;;;;;;2.07;1.97;;;;;;;12.00;74.57;94988.38;4271920;32;20277;-59
2023/04/21 07:52:02;;;;;;;2.57;2.47;;;;;;;12.15;72.44;94997.78;4319237;32;20185;-58
2023/04/21 07:54:29;;;;;;;3.90;3.13;;;;;;;12.30;73.15;94999.97;4307597;32;20186;-61
2023/04/21 07:56:55;;;;;;;3.17;2.73;;;;;;;12.22;72.56;94990.91;4311727;32;20277;-60
2023/04/21 07:59:20;;;;;;;3.17;2.97;;;;;;;12.12;73.38;94996.50;4309699;33;20186;-59
2023/04/21 08:01:46;;;;;;;2.90;2.80;;;;;;;12.28;73.76;94996.84;4291628;33;20202;-59
2023/04/21 08:04:12;;;;;;;3.83;2.13;;;;;;;12.53;71.47;94997.97;4293333;32;20324;-57
2023/04/21 08:06:37;;;;;;;2.07;1.97;;;;;;;12.57;71.82;94994.37;4297806;32;20197;-58
2023/04/21 08:09:03;;;;;;;3.37;2.77;;;;;;;12.52;71.93;94997.19;4263911;33;20197;-58
2023/04/21 08:11:30;;;;;;;2.17;1.97;;;;;;;12.62;71.42;95001.41;4299587;32;20200;-59
2023/04/21 08:13:56;;;;;;;1.70;1.63;;;;;;;12.62;71.52;94996.09;4331387;32;20201;-59
2023/04/21 08:16:28;;;;;;;2.80;2.70;;;;;;;12.48;72.65;95000.75;4334881;32;20177;-58
2023/04/21 08:18:54;;;;;;;1.60;1.53;;;;;;;12.62;72.82;95001.41;4346061;32;20195;-59
2023/04/21 08:21:24;;;;;;;1.63;1.53;;;;;;;12.62;73.52;94996.88;4292070;32;20410;-58
2023/04/21 08:23:50;;;;;;;2.90;2.67;;;;;;;12.82;73.06;95000.00;4325577;32;20267;-57
2023/04/21 08:26:20;;;;;;;3.13;2.47;;;;;;;12.97;71.90;95002.94;4285050;32;20273;-58
2023/04/21 08:28:48;;;;;;;3.13;2.93;;;;;;;13.05;70.74;94998.72;4284129;33;20189;-58
2023/04/21 08:31:18;;;;;;;3.17;2.97;;;;;;;12.96;70.41;94995.25;4267929;33;20191;-60
2023/04/21 08:33:46;;;;;;;2.13;2.10;;;;;;;13.07;70.77;94996.50;4300868;32;20234;-60
2023/04/21 08:36:13;;;;;;;2.67;2.47;;;;;;;13.01;71.56;94989.78;4294197;33;20295;-60
2023/04/21 08:38:43;;;;;;;2.67;2.47;;;;;;;13.16;69.89;94999.97;4313370;32;20253;-58
2023/04/21 08:41:09;;;;;;;1.90;1.87;;;;;;;13.31;69.96;94990.66;4298343;32;20239;-59
2023/04/21 08:43:35;;;;;;;2.37;2.27;;;;;;;13.33;70.69;94994.56;4281677;32;20190;-59
2023/04/21 08:49:32;;;;;;;1.90;1.80;;;;;;;13.42;70.73;94991.91;4334009;32;20260;-60
2023/04/21 08:52:01;;;;;;;2.07;2.07;;;;;;;13.32;69.51;94993.00;4341550;32;20208;-59
2023/04/21 08:54:29;;;;;;;1.67;1.67;;;;;;;13.33;69.83;94994.56;4288319;33;20194;-59
2023/04/21 08:56:57;;;;;;;2.10;2.00;;;;;;;13.39;69.99;94989.88;4326147;32;20184;-60
2023/04/21 08:59:24;;;;;;;1.73;1.63;;;;;;;13.48;71.43;94992.50;4274390;32;20205;-59
2023/04/21 09:02:20;;;;;;;1.63;1.53;;;;;;;13.85;76.77;94994.37;4325409;32;20295;-58
2023/04/21 09:04:59;;;;;;;1.60;1.60;;;;;;;14.83;75.58;94985.09;4329683;32;20190;-59
2023/04/21 09:07:45;;;;;;;1.97;1.87;;;;;;;16.05;66.27;94980.72;4344034;32;20223;-59
2023/04/21 09:10:12;;;;;;;2.03;1.93;;;;;;;16.99;63.80;94983.09;4335900;32;20240;-59
2023/04/21 09:12:39;;;;;;;3.90;1.53;;;;;;;17.40;60.64;94984.56;4324259;32;20191;-59
2023/04/21 09:15:05;;;;;;;1.73;1.63;;;;;;;17.64;60.45;94982.84;4343660;32;20256;-60
2023/04/21 09:17:32;;;;;;;1.97;1.87;;;;;;;17.59;60.49;94977.72;4339680;32;20211;-60
2023/04/21 09:20:25;;;;;;;6.13;3.33;;;;;;;16.66;62.00;94975.28;4278240;32;20197;-58
2023/04/21 09:23:09;;;;;;;2.20;2.00;;;;;;;17.25;61.37;94968.47;4262988;32;20194;-59
2023/04/21 09:25:44;;;;;;;2.03;1.93;;;;;;;17.75;59.22;94979.31;4311704;32;20228;-58
2023/04/21 09:28:21;;;;;;;2.50;2.40;;;;;;;17.96;57.86;94975.56;4327387;32;20243;-58
2023/04/21 09:30:47;;;;;;;2.57;2.37;;;;;;;18.15;58.02;94967.56;4318940;33;20177;-59
2023/04/21 09:33:17;;;;;;;1.63;1.53;;;;;;;18.23;58.31;94971.97;4303438;32;20210;-59
2023/04/21 09:35:44;;;;;;;1.83;1.80;;;;;;;18.29;58.49;94975.94;4326210;32;20280;-57
2023/04/21 09:38:11;;;;;;;1.53;1.37;;;;;;;18.30;57.48;94982.09;4310185;33;20243;-59
2023/04/21 09:40:39;;;;;;;2.57;2.37;;;;;;;18.20;57.61;94981.50;4318791;33;20225;-59
2023/04/21 09:43:05;;;;;;;2.27;2.17;;;;;;;18.15;56.71;94968.34;4315234;32;20289;-58
2023/04/21 09:45:33;;;;;;;1.73;1.63;;;;;;;17.51;56.49;94974.09;4311231;32;20186;-59
2023/04/21 09:48:02;;;;;;;4.23;2.33;;;;;;;17.91;58.42;94973.16;4324362;32;20253;-58
2023/04/21 09:50:46;;;;;;;2.23;2.13;;;;;;;18.08;57.30;94970.13;4328304;32;20194;-58
2023/04/21 09:53:15;;;;;;;1.47;1.37;;;;;;;18.29;56.57;94969.81;4332726;32;20211;-59
2023/04/21 09:55:45;;;;;;;2.40;2.23;;;;;;;18.51;55.02;94961.84;4336002;32;20211;-60
2023/04/21 09:58:18;;;;;;;2.90;2.73;;;;;;;17.70;54.85;94960.00;4284062;32;20194;-60
2023/04/21 10:00:45;;;;;;;2.33;2.23;;;;;;;16.71;58.31;94968.91;4291516;33;20245;-60
2023/04/21 10:03:15;;;;;;;2.03;1.93;;;;;;;16.41;60.04;94965.75;4328240;32;20203;-60
2023/04/21 10:05:44;;;;;;;4.03;3.37;;;;;;;15.89;60.97;94976.41;4284741;33;20202;-61
2023/04/21 10:08:12;;;;;;;2.90;2.70;;;;;;;15.66;61.75;94968.81;4314602;32;20201;-60
2023/04/21 10:10:44;;;;;;;2.87;2.47;;;;;;;15.27;62.94;94966.75;4277971;32;20198;-59
2023/04/21 10:13:17;;;;;;;1.83;1.80;;;;;;;15.18;64.06;94968.72;4296226;32;20233;-60
2023/04/21 10:15:45;;;;;;;2.60;2.50;;;;;;;14.75;65.89;94967.25;4336907;32;20196;-60
2023/04/21 10:18:20;;;;;;;2.83;2.63;;;;;;;14.60;67.83;94955.28;4298120;32;20233;-60
2023/04/21 10:21:01;;;;;;;1.77;1.70;;;;;;;14.48;67.19;94959.78;4338521;32;20248;-60
2023/04/21 10:23:47;;;;;;;3.53;2.57;;;;;;;14.31;67.41;94950.78;4334448;32;20291;-60
2023/04/21 10:26:20;;;;;;;2.07;1.97;;;;;;;14.39;67.20;94951.81;4339907;32;20189;-59
2023/04/21 10:28:58;;;;;;;2.47;2.37;;;;;;;14.64;67.48;94939.37;4343012;32;20257;-59
2023/04/21 10:31:47;;;;;;;3.87;3.67;;;;;;;14.62;68.79;94946.94;4305783;32;20208;-59
2023/04/21 10:34:13;;;;;;;3.67;3.37;;;;;;;14.79;68.69;94941.44;4354746;32;20189;-59
2023/04/21 10:36:44;;;;;;;4.07;3.83;;;;;;;14.42;71.19;94945.84;4292592;32;20195;-59
2023/04/21 10:39:13;;;;;;;3.40;3.27;;;;;;;14.53;71.19;94949.72;4318236;32;20190;-59
2023/04/21 10:41:55;;;;;;;3.53;3.33;;;;;;;14.60;71.35;94943.81;4300949;33;20190;-59
2023/04/21 10:44:21;;;;;;;3.97;3.77;;;;;;;14.54;72.26;94945.16;4317737;32;20292;-59
2023/04/21 10:46:48;;;;;;;15.40;4.70;;;;;;;14.61;72.18;94942.72;4309234;32;20198;-59
2023/04/21 10:49:29;;;;;;;3.63;3.43;;;;;;;14.56;72.45;94945.56;4329702;32;20311;-59
2023/04/21 10:52:08;;;;;;;4.23;3.93;;;;;;;14.60;72.14;94947.28;4306796;32;20233;-59
2023/04/21 10:55:06;;;;;;;4.43;4.03;;;;;;;14.58;72.45;94940.69;4310939;33;20189;-59
2023/04/21 10:57:34;;;;;;;4.43;4.13;;;;;;;14.75;72.35;94936.00;4306504;33;20181;-59
2023/04/21 11:00:00;;;;;;;4.40;4.10;;;;;;;14.74;72.06;94936.34;4269147;33;20181;-59
2023/04/21 11:02:27;;;;;;;3.53;3.33;;;;;;;14.75;72.53;94929.88;4309935;32;20177;-59
2023/04/21 11:04:54;;;;;;;3.17;3.00;;;;;;;14.82;72.66;94924.00;4310130;32;20287;-59
2023/04/21 11:07:29;;;;;;;3.57;3.43;;;;;;;14.76;73.01;94926.84;4311861;33;20304;-59
2023/04/21 11:10:10;;;;;;;4.00;3.70;;;;;;;14.88;73.23;94920.00;4331432;32;20207;-59
2023/04/21 11:12:40;;;;;;;2.63;2.50;;;;;;;14.93;72.46;94915.25;4328254;32;20223;-59
2023/04/21 11:15:16;;;;;;;5.73;5.33;;;;;;;14.93;72.99;94915.25;4306029;32;20260;-59
2023/04/21 11:17:45;;;;;;;3.43;3.33;;;;;;;14.98;72.77;94916.91;4322869;32;20200;-59
2023/04/21 11:20:15;;;;;;;3.77;3.40;;;;;;;15.05;72.21;94915.25;4320824;32;20182;-59
2023/04/21 11:22:41;;;;;;;3.17;2.83;;;;;;;14.97;72.99;94904.66;4314463;32;20264;-59
2023/04/21 11:25:18;;;;;;;3.43;3.20;;;;;;;15.12;71.69;94896.78;4303600;33;20182;-59
2023/04/21 11:27:58;;;;;;;5.30;4.27;;;;;;;15.29;70.86;94900.38;4319460;32;20193;-59
2023/04/21 11:30:34;;;;;;;3.77;3.57;;;;;;;15.37;70.01;94907.50;4309417;32;20189;-59
2023/04/21 11:33:01;;;;;;;3.20;3.00;;;;;;;15.18;70.97;94900.00;4313404;32;20280;-59
2023/04/21 11:35:30;;;;;;;2.40;2.30;;;;;;;15.18;70.57;94909.91;4267214;33;20270;-61
2023/04/21 11:37:57;;;;;;;2.60;2.50;;;;;;;15.37;69.95;94910.19;4333916;32;20193;-60
2023/04/21 11:40:24;;;;;;;2.30;2.20;;;;;;;15.38;69.79;94896.47;4310985;32;20206;-60
2023/04/21 11:42:51;;;;;;;3.40;3.20;;;;;;;15.48;69.33;94901.37;4331739;32;20252;-60
2023/04/21 11:45:18;;;;;;;3.73;3.43;;;;;;;15.41;68.92;94901.16;4353732;32;20196;-60